Terminal Aerodrome Forecast
Issued by NWS

Home | Current Version | Previous Version | Graphics & Text | Print | Product List | Glossary On
Versions: 1 2 3 4 5 6 7 8 9 10 11 12 13 14 15
751
FTUS43 KMPX 092327
TAFAXN
TAF
KAXN 092327Z 1000/1024 33011KT P6SM SCT200
     FM100600 34007KT P6SM SCT200
     FM101200 02004KT P6SM BKN090
     FM101500 08005KT P6SM BKN060=

USA.gov is the U.S. government's official web portal to all federal, state and local government web resources and services.